Pine Cliff, Utah
Current Conditions -  °F | °C
As of 10:53 PM on Saturday 20 Dec 2014 (Local Time) from KEVW Reporting Station
Overcast Overcast  
Wind Chill: -7°   Ceiling: 9500
Heat Index: -1°   Visibility: 10mi
Dew Point: -2°   Wind: 15mph
Humidity: 92%   Direction: 220°SW
Pressure: 30"   Gusts: NA
Location:  40.9431°N, 111.212°W
Report Text: KEVW 210553Z AUTO 22013KT 10SM OVC095 M01/M02 A3000 RMK AO2 SLP161 T10111022 11011 21022 58006
Loading
Personal Weather Stations






























Interactive Weather Map New forecast layout! Learn more

10-Day Weather Forecast

Advertisements
Track Severe Weather on mobile